Time;durP1;ratioP1;P1;durP2;ratioP2;P2;SDS_P1;SDS_P2;PMS_P1;PMS_P2;Temp;Humidity;BMP_temperature;BMP_pressure;BME280_temperature;BME280_humidity;BME280_pressure;Samples;Min_cycle;Max_cycle;Signal;HPM_P1;HPM_P2
2022/12/26 00:00:59;;;;;;;18.15;15.75;;;;;;;20.09;52.03;102064.31;5033890;28;20489;-57
2022/12/26 00:03:29;;;;;;;18.40;15.93;;;;;;;20.08;52.21;102074.19;5033994;28;20049;-57
2022/12/26 00:05:57;;;;;;;16.95;14.57;;;;;;;20.08;52.09;102071.50;5033796;28;20045;-58
2022/12/26 00:08:24;;;;;;;17.42;13.82;;;;;;;20.08;52.10;102071.50;5033478;28;20065;-56
2022/12/26 00:10:51;;;;;;;20.70;14.05;;;;;;;20.09;52.14;102067.00;5033676;28;20052;-58
2022/12/26 00:13:18;;;;;;;17.75;15.15;;;;;;;20.08;52.14;102071.50;5033710;28;20048;-59
2022/12/26 00:16:18;;;;;;;17.48;14.57;;;;;;;20.08;52.38;102076.88;5033620;28;20380;-59
2022/12/26 00:18:45;;;;;;;15.25;12.95;;;;;;;20.08;52.41;102066.13;5033779;28;20045;-60
2022/12/26 00:21:15;;;;;;;16.60;13.82;;;;;;;20.08;52.20;102071.50;5033470;28;20053;-59
2022/12/26 00:23:43;;;;;;;13.55;12.15;;;;;;;20.08;52.29;102066.13;5033246;28;20045;-59
2022/12/26 00:26:15;;;;;;;16.83;13.75;;;;;;;20.07;52.34;102061.72;5033893;28;20045;-59
2022/12/26 00:28:44;;;;;;;15.70;13.05;;;;;;;20.06;52.25;102064.53;5033745;28;20049;-59
2022/12/26 00:31:18;;;;;;;14.25;12.73;;;;;;;20.06;52.05;102073.47;5033442;28;20045;-59
2022/12/26 00:33:47;;;;;;;15.75;14.05;;;;;;;20.06;52.24;102065.41;5033217;28;20041;-58
2022/12/26 00:36:20;;;;;;;17.67;14.27;;;;;;;20.06;51.96;102069.91;5033405;28;20049;-59
2022/12/26 00:38:49;;;;;;;14.48;12.27;;;;;;;20.05;51.91;102068.16;5033489;28;20057;-58
2022/12/26 00:41:19;;;;;;;17.10;13.55;;;;;;;20.05;51.92;102070.88;5033207;28;20058;-59
2022/12/26 00:43:47;;;;;;;15.23;12.48;;;;;;;20.04;52.03;102069.16;5033184;28;20048;-59
2022/12/26 00:46:15;;;;;;;15.43;12.82;;;;;;;20.04;51.95;102070.00;5033570;28;20045;-58
2022/12/26 00:48:43;;;;;;;14.35;12.68;;;;;;;20.05;52.10;102073.56;5032990;28;20045;-58
2022/12/26 00:51:10;;;;;;;15.95;12.75;;;;;;;20.06;51.85;102069.91;5032941;28;20056;-59
2022/12/26 00:53:39;;;;;;;16.70;13.40;;;;;;;20.05;52.01;102071.72;5011693;28;20045;-59
2022/12/26 00:56:07;;;;;;;15.88;13.57;;;;;;;20.03;51.93;102070.97;5013340;28;20409;-59
2022/12/26 00:58:35;;;;;;;15.95;12.68;;;;;;;20.05;51.88;102078.94;5014876;28;20061;-59
2022/12/26 01:01:13;;;;;;;14.90;13.07;;;;;;;20.03;52.05;102081.72;5032889;28;20053;-59
2022/12/26 01:03:42;;;;;;;14.13;12.63;;;;;;;20.05;51.84;102079.78;5033509;28;20053;-59
2022/12/26 01:06:10;;;;;;;17.50;12.63;;;;;;;20.05;52.08;102076.25;5032968;28;20050;-59
2022/12/26 01:08:37;;;;;;;15.30;12.48;;;;;;;20.04;51.99;102075.38;5032930;28;20046;-59
2022/12/26 01:11:07;;;;;;;13.35;11.75;;;;;;;20.04;52.00;102080.75;5033104;28;20148;-59
2022/12/26 01:13:35;;;;;;;13.13;11.73;;;;;;;20.03;51.99;102072.81;5032402;28;20054;-59
2022/12/26 01:16:04;;;;;;;14.18;11.80;;;;;;;20.03;52.15;102070.97;5032548;28;20380;-58
2022/12/26 01:18:32;;;;;;;13.95;11.90;;;;;;;20.03;52.12;102072.81;5032883;28;20076;-58
2022/12/26 01:21:06;;;;;;;14.65;12.45;;;;;;;20.03;52.23;102078.19;5032387;28;20418;-59
2022/12/26 01:23:34;;;;;;;15.35;12.55;;;;;;;20.03;52.08;102067.44;5032420;28;20052;-58
2022/12/26 01:26:04;;;;;;;14.38;12.07;;;;;;;20.03;52.42;102072.81;5012322;28;20049;-58
2022/12/26 01:28:51;;;;;;;16.65;12.32;;;;;;;20.02;52.30;102071.97;5013910;28;20050;-58
2022/12/26 01:31:19;;;;;;;13.23;11.40;;;;;;;20.03;52.39;102070.13;5013130;28;20357;-59
2022/12/26 01:33:47;;;;;;;13.82;12.15;;;;;;;20.02;52.37;102068.41;5012968;28;20053;-58
2022/12/26 01:36:15;;;;;;;12.90;10.95;;;;;;;20.01;52.29;102070.22;5013459;28;20053;-59
2022/12/26 01:38:43;;;;;;;14.77;12.43;;;;;;;20.02;52.32;102066.59;5012719;28;20046;-59
2022/12/26 01:41:21;;;;;;;14.70;12.35;;;;;;;20.02;52.39;102060.34;5012907;28;20046;-59
2022/12/26 01:43:51;;;;;;;13.68;11.63;;;;;;;20.02;52.40;102071.97;5012833;28;20072;-51
2022/12/26 01:46:44;;;;;;;14.05;11.18;;;;;;;20.01;52.40;102080.97;5011102;28;20050;-53
2022/12/26 01:49:25;;;;;;;14.10;12.18;;;;;;;20.00;52.54;102073.88;5012779;28;20050;-52
2022/12/26 01:51:58;;;;;;;12.30;11.00;;;;;;;20.00;52.31;102068.50;5012888;28;20399;-54
2022/12/26 01:54:28;;;;;;;14.70;10.88;;;;;;;20.00;52.45;102073.88;5011734;28;20506;-52
2022/12/26 01:57:21;;;;;;;14.38;10.85;;;;;;;20.00;52.30;102077.41;5012851;28;20049;-53
2022/12/26 01:59:51;;;;;;;13.65;11.23;;;;;;;19.99;52.40;102081.09;5023882;28;20046;-51
2022/12/26 02:02:20;;;;;;;12.85;10.57;;;;;;;19.99;52.47;102089.16;5032964;28;20041;-53
2022/12/26 02:07:43;;;;;;;12.05;10.40;;;;;;;20.00;52.51;102081.94;5036038;28;20045;-55
2022/12/26 02:10:16;;;;;;;13.05;11.30;;;;;;;20.00;52.29;102080.09;5035860;28;20068;-52
2022/12/26 02:12:44;;;;;;;12.70;11.30;;;;;;;19.99;52.32;102080.22;5036194;28;20479;-53
2022/12/26 02:15:15;;;;;;;12.93;10.88;;;;;;;19.99;52.53;102074.84;5035595;28;20057;-53
2022/12/26 02:17:46;;;;;;;11.82;10.35;;;;;;;19.99;52.42;102072.16;5035869;28;20046;-53
2022/12/26 02:20:21;;;;;;;13.30;10.63;;;;;;;19.99;52.32;102074.84;5036113;28;20058;-54
2022/12/26 02:23:07;;;;;;;12.70;10.38;;;;;;;19.99;52.60;102069.47;5035802;28;20376;-53
2022/12/26 02:25:53;;;;;;;11.82;10.43;;;;;;;19.98;52.57;102070.44;5035661;28;20045;-55
2022/12/26 02:28:35;;;;;;;12.70;10.35;;;;;;;19.99;52.44;102070.34;5035851;28;20046;-51
2022/12/26 02:31:20;;;;;;;12.30;10.13;;;;;;;19.99;52.36;102074.84;5035870;28;20052;-50
2022/12/26 02:33:53;;;;;;;11.82;9.98;;;;;;;19.98;52.43;102068.63;5035128;28;20068;-53
2022/12/26 02:36:56;;;;;;;12.50;10.10;;;;;;;19.98;52.49;102067.75;5033662;28;20053;-53
2022/12/26 02:39:37;;;;;;;12.32;10.00;;;;;;;19.98;52.66;102065.06;5033214;28;20061;-51
2022/12/26 02:42:30;;;;;;;13.50;10.32;;;;;;;19.99;52.65;102058.72;5035507;28;20057;-51
2022/12/26 02:48:23;;;;;;;10.38;9.27;;;;;;;19.98;52.56;102054.31;5035166;28;20050;-53
2022/12/26 03:14:46;;;;;;;12.15;9.15;;;;;;;19.96;52.68;102042.81;5034475;28;20049;-54
2022/12/26 03:17:26;;;;;;;10.75;9.65;;;;;;;19.97;52.81;102036.44;5035092;28;20503;-54
2022/12/26 03:20:04;;;;;;;13.05;9.88;;;;;;;19.96;52.72;102026.66;5035177;28;20048;-53
2022/12/26 03:22:40;;;;;;;11.10;8.88;;;;;;;19.97;52.74;102033.75;5034597;28;20414;-55
2022/12/26 03:28:02;;;;;;;10.63;8.07;;;;;;;19.95;52.69;102033.88;5034124;28;20490;-52
2022/12/26 03:30:47;;;;;;;11.57;8.65;;;;;;;19.96;52.55;102026.66;5034629;28;20064;-52
2022/12/26 03:36:06;;;;;;;10.05;8.38;;;;;;;19.95;52.47;102030.34;5034298;28;20049;-53
2022/12/26 03:39:06;;;;;;;11.60;8.98;;;;;;;19.95;52.54;102023.13;5034417;28;20054;-53
2022/12/26 04:20:09;;;;;;;10.18;7.68;;;;;;;19.95;53.04;101998.09;5032456;28;20061;-54
2022/12/26 04:45:49;;;;;;;10.88;8.05;;;;;;;19.94;53.13;102028.63;5033257;28;20041;-52
2022/12/26 04:51:03;;;;;;;9.00;7.68;;;;;;;19.93;53.12;102026.88;5032965;28;20415;-52
2022/12/26 04:53:30;;;;;;;11.48;8.25;;;;;;;19.93;53.07;102033.16;5032846;28;20093;-52
2022/12/26 04:55:58;;;;;;;9.63;8.05;;;;;;;19.94;52.99;102023.25;5027893;28;20041;-51
2022/12/26 04:58:25;;;;;;;10.95;8.00;;;;;;;19.93;53.07;102027.75;5012177;28;20041;-53
2022/12/26 05:09:32;;;;;;;10.63;7.97;;;;;;;19.93;53.13;102035.81;5013092;28;20053;-51
2022/12/26 05:09:35;;;;;;;9.30;7.15;;;;;;;19.92;53.00;102036.78;5012874;28;20057;-59
2022/12/26 05:12:06;;;;;;;10.30;8.05;;;;;;;19.92;53.23;102044.84;5013470;28;20057;-58
2022/12/26 05:14:35;;;;;;;9.57;7.57;;;;;;;19.92;53.18;102033.22;5012970;28;20045;-59
2022/12/26 05:31:03;;;;;;;9.93;8.45;;;;;;;19.92;53.29;102035.91;5032991;28;20054;-59
2022/12/26 05:36:19;;;;;;;8.43;7.35;;;;;;;19.92;53.08;102046.66;5032890;28;20034;-60
2022/12/26 05:38:47;;;;;;;9.80;7.45;;;;;;;19.92;53.34;102039.47;5034603;28;20495;-59
2022/12/26 05:41:15;;;;;;;8.50;7.13;;;;;;;19.92;53.19;102058.28;5036101;28;20049;-59
2022/12/26 05:43:43;;;;;;;9.80;8.25;;;;;;;19.91;53.27;102053.88;5037159;28;20049;-59
2022/12/26 05:46:11;;;;;;;8.27;7.20;;;;;;;19.92;53.20;102054.72;5035291;28;20368;-59
2022/12/26 05:48:38;;;;;;;9.63;7.82;;;;;;;19.93;53.38;102061.81;5036333;28;20041;-59
2022/12/26 05:51:05;;;;;;;8.88;7.25;;;;;;;19.93;53.12;102069.88;5036439;28;20045;-59
2022/12/26 05:53:33;;;;;;;8.82;6.95;;;;;;;19.92;53.27;102068.16;5035913;28;20068;-59
2022/12/26 05:56:03;;;;;;;10.15;7.70;;;;;;;19.92;53.23;102071.72;5035614;28;20407;-59
2022/12/26 05:58:31;;;;;;;9.05;7.00;;;;;;;19.92;53.40;102070.84;5034927;28;20045;-59
2022/12/26 06:01:17;;;;;;;8.88;7.43;;;;;;;19.92;53.24;102068.16;5036562;28;20061;-59
2022/12/26 06:03:53;;;;;;;9.20;8.20;;;;;;;19.92;53.44;102063.66;5036101;28;20045;-59
2022/12/26 06:06:22;;;;;;;9.38;7.47;;;;;;;19.92;53.36;102063.66;5036317;28;20041;-59
2022/12/26 06:08:51;;;;;;;8.15;7.13;;;;;;;19.92;53.17;102069.03;5035871;28;20049;-59
2022/12/26 06:11:19;;;;;;;9.00;6.80;;;;;;;19.92;53.36;102068.16;5035802;28;20484;-59
2022/12/26 06:13:46;;;;;;;9.32;6.93;;;;;;;19.92;53.24;102063.66;5035762;28;20056;-59
2022/12/26 06:16:16;;;;;;;7.78;6.63;;;;;;;19.92;53.38;102071.72;5035999;28;20037;-59
2022/12/26 06:18:43;;;;;;;7.93;6.68;;;;;;;19.92;53.41;102077.09;5035776;28;20050;-59
2022/12/26 06:21:16;;;;;;;9.07;6.53;;;;;;;19.91;53.32;102071.81;5035643;28;20049;-59
2022/12/26 06:23:43;;;;;;;8.20;7.28;;;;;;;19.92;53.30;102068.16;5035940;28;20052;-59
2022/12/26 06:26:11;;;;;;;8.23;6.20;;;;;;;19.90;53.58;102068.28;5035519;28;20056;-59
2022/12/26 06:28:40;;;;;;;9.93;7.40;;;;;;;19.92;53.47;102063.66;5035999;28;20049;-59
2022/12/26 06:31:10;;;;;;;9.07;7.68;;;;;;;19.92;53.65;102068.16;5035527;28;20057;-60
2022/12/26 06:33:37;;;;;;;8.80;6.68;;;;;;;19.90;53.55;102073.66;5035284;28;20049;-60
2022/12/26 06:36:10;;;;;;;8.18;6.75;;;;;;;19.91;53.53;102072.69;5035503;28;20053;-59
2022/12/26 06:38:38;;;;;;;8.23;6.72;;;;;;;19.90;53.47;102068.28;5035231;28;20488;-59
2022/12/26 06:41:10;;;;;;;9.55;7.18;;;;;;;19.91;53.61;102074.53;5035110;28;20045;-59
2022/12/26 06:43:38;;;;;;;8.15;6.93;;;;;;;19.91;53.47;102069.13;5034267;28;20456;-60
2022/12/26 06:46:07;;;;;;;9.07;6.93;;;;;;;19.91;53.61;102078.06;5035518;28;20049;-60
2022/12/26 06:48:40;;;;;;;9.23;6.72;;;;;;;19.91;53.51;102077.19;5034750;28;20109;-59
2022/12/26 06:51:11;;;;;;;9.20;6.43;;;;;;;19.91;53.31;102079.91;5035011;28;20057;-60
2022/12/26 06:53:39;;;;;;;10.20;6.60;;;;;;;19.90;53.34;102075.50;5035528;28;20050;-60
2022/12/26 06:56:26;;;;;;;8.45;6.78;;;;;;;19.90;53.43;102075.50;5034918;28;20037;-60
2022/12/26 06:58:56;;;;;;;7.13;6.43;;;;;;;19.89;53.15;102074.63;5023670;28;20490;-60
2022/12/26 07:01:24;;;;;;;9.15;6.95;;;;;;;19.89;53.12;102073.75;5015096;28;20041;-60
2022/12/26 07:03:53;;;;;;;9.27;6.93;;;;;;;19.89;53.07;102081.81;5015146;28;20407;-60
2022/12/26 07:06:27;;;;;;;7.65;6.43;;;;;;;19.89;53.19;102074.63;5015093;28;20045;-60
2022/12/26 07:09:23;;;;;;;8.93;7.68;;;;;;;19.89;53.17;102071.06;5015360;28;20056;-60
2022/12/26 07:11:59;;;;;;;8.00;6.70;;;;;;;19.89;53.06;102066.56;5014542;28;20061;-60
2022/12/26 07:14:27;;;;;;;7.82;6.28;;;;;;;19.89;53.15;102079.13;5014917;28;20050;-60
2022/12/26 07:16:54;;;;;;;8.65;6.65;;;;;;;19.89;53.15;102071.94;5015225;28;20038;-60
2022/12/26 07:19:21;;;;;;;8.55;6.55;;;;;;;19.90;53.27;102087.09;5014718;28;20068;-55
2022/12/26 07:21:49;;;;;;;9.27;6.60;;;;;;;19.89;53.06;102087.19;5014843;28;20057;-56
2022/12/26 07:24:18;;;;;;;7.70;6.82;;;;;;;19.89;53.12;102087.19;5014683;28;20046;-54
2022/12/26 07:26:46;;;;;;;8.15;6.05;;;;;;;19.89;53.12;102087.19;5029139;28;20049;-51
2022/12/26 07:29:14;;;;;;;7.07;6.25;;;;;;;19.89;53.09;102085.38;5034413;28;20053;-54
2022/12/26 07:31:42;;;;;;;7.90;6.55;;;;;;;19.90;53.01;102092.47;5034698;28;20060;-51
2022/12/26 07:34:09;;;;;;;7.90;6.65;;;;;;;19.89;53.07;102088.06;5034175;28;20050;-55
2022/12/26 07:36:36;;;;;;;7.18;5.72;;;;;;;19.89;53.11;102087.19;5034156;28;20041;-53
2022/12/26 07:39:04;;;;;;;7.65;6.10;;;;;;;19.88;53.04;102090.84;5034269;28;20064;-53
2022/12/26 07:44:17;;;;;;;9.52;6.80;;;;;;;19.88;52.96;102091.69;5033765;28;20399;-53
2022/12/26 07:46:48;;;;;;;8.25;6.03;;;;;;;19.89;52.81;102096.13;5034261;28;20586;-55
2022/12/26 07:49:15;;;;;;;9.32;6.32;;;;;;;19.89;52.91;102096.13;5031932;28;20060;-50
2022/12/26 07:51:42;;;;;;;8.75;6.38;;;;;;;19.89;52.99;102089.88;5033784;28;20058;-54
2022/12/26 07:54:10;;;;;;;7.97;6.55;;;;;;;19.88;52.88;102085.47;5034256;28;20045;-53
2022/12/26 07:56:39;;;;;;;8.68;6.20;;;;;;;19.88;52.98;102089.00;5033822;28;20048;-55
2022/12/26 07:59:10;;;;;;;7.95;6.45;;;;;;;19.88;52.91;102089.00;5028638;28;20049;-53
2022/12/26 08:01:38;;;;;;;8.27;6.38;;;;;;;19.87;52.87;102087.31;5012672;28;20042;-56
2022/12/26 08:04:05;;;;;;;9.27;7.05;;;;;;;19.88;52.88;102082.78;5014036;28;20056;-51
2022/12/26 08:06:33;;;;;;;9.70;6.60;;;;;;;19.87;53.02;102087.31;5012810;28;20494;-55
2022/12/26 08:09:00;;;;;;;7.82;6.10;;;;;;;19.87;52.93;102087.31;5013900;28;20049;-53
2022/12/26 08:11:32;;;;;;;8.93;6.47;;;;;;;19.88;53.04;102093.53;5024453;28;20042;-53
2022/12/26 08:14:00;;;;;;;8.02;6.78;;;;;;;19.87;53.01;102091.81;5033218;28;20053;-54
2022/12/26 08:16:28;;;;;;;9.43;7.00;;;;;;;19.87;52.87;102086.44;5033017;28;20045;-53
2022/12/26 08:18:55;;;;;;;7.18;5.93;;;;;;;19.87;52.98;102081.94;5033805;28;20045;-54
2022/12/26 08:21:23;;;;;;;8.23;5.95;;;;;;;19.86;53.00;102090.97;5033491;28;20072;-54
2022/12/26 08:23:50;;;;;;;9.43;6.30;;;;;;;19.87;52.79;102086.44;5033375;28;20037;-53
2022/12/26 08:26:21;;;;;;;7.70;6.55;;;;;;;19.86;52.95;102098.16;5033701;28;20041;-56
2022/12/26 08:28:50;;;;;;;9.25;6.07;;;;;;;19.85;52.63;102094.63;5033393;28;20049;-55
2022/12/26 08:31:19;;;;;;;7.40;6.25;;;;;;;19.86;52.82;102090.09;5033202;28;20492;-54
2022/12/26 08:33:47;;;;;;;7.15;6.07;;;;;;;19.86;52.84;102104.41;5033224;28;20056;-55
2022/12/26 08:36:18;;;;;;;8.60;6.15;;;;;;;19.87;53.13;102097.19;5033392;28;20046;-55
2022/12/26 08:38:45;;;;;;;9.60;5.40;;;;;;;19.88;53.46;102099.75;5032888;28;20522;-56
2022/12/26 08:41:13;;;;;;;7.20;5.70;;;;;;;19.89;53.39;102100.63;5032982;28;20492;-54
2022/12/26 08:43:40;;;;;;;7.70;4.97;;;;;;;19.90;53.42;102107.75;5033013;28;20049;-54
2022/12/26 08:46:27;;;;;;;9.40;7.00;;;;;;;19.89;52.36;102104.19;5033187;28;20476;-56
2022/12/26 08:48:55;;;;;;;10.05;7.72;;;;;;;19.83;51.18;102101.91;5033083;28;20045;-56
2022/12/26 08:51:24;;;;;;;8.95;6.32;;;;;;;19.82;52.86;102100.19;5033072;28;20053;-54
2022/12/26 08:53:53;;;;;;;7.50;5.63;;;;;;;19.84;53.07;102109.00;5033330;28;20045;-56
2022/12/26 08:56:23;;;;;;;7.55;5.85;;;;;;;19.85;53.13;102105.38;5033065;28;20411;-55
2022/12/26 08:58:51;;;;;;;8.27;5.97;;;;;;;19.86;52.89;102109.78;5032846;28;20403;-55
2022/12/26 09:01:21;;;;;;;5.97;5.38;;;;;;;19.88;53.00;102106.97;5019103;28;20057;-52
2022/12/26 09:03:55;;;;;;;8.75;6.68;;;;;;;19.89;53.07;102122.13;5012994;28;20416;-57
2022/12/26 09:06:23;;;;;;;7.65;5.63;;;;;;;19.89;52.98;102112.25;5013025;28;20046;-60
2022/12/26 09:08:51;;;;;;;7.53;5.60;;;;;;;19.90;52.96;102108.59;5013213;28;20407;-59
2022/12/26 09:11:25;;;;;;;8.60;6.43;;;;;;;19.92;52.85;102111.16;5013194;28;20046;-59
2022/12/26 09:13:54;;;;;;;8.27;5.90;;;;;;;19.92;52.64;102108.47;5017525;28;20045;-60
2022/12/26 09:16:25;;;;;;;6.22;5.10;;;;;;;19.91;52.70;102110.31;5016937;28;20432;-60
2022/12/26 09:18:56;;;;;;;8.65;5.90;;;;;;;19.92;52.56;102112.03;5016875;28;20139;-57
2022/12/26 09:21:24;;;;;;;7.63;5.65;;;;;;;19.93;52.47;102108.41;5017213;28;20058;-56
2022/12/26 09:24:08;;;;;;;7.65;5.53;;;;;;;19.93;52.15;102111.09;5016689;28;20053;-57
2022/12/26 09:26:36;;;;;;;8.00;5.40;;;;;;;19.95;52.20;102108.28;5024033;28;20403;-56
2022/12/26 09:29:04;;;;;;;6.90;5.35;;;;;;;19.94;52.46;102107.44;5037054;28;20061;-55
2022/12/26 09:31:34;;;;;;;5.95;4.93;;;;;;;19.93;52.54;102113.78;5035495;28;20053;-57
2022/12/26 09:34:06;;;;;;;6.40;5.03;;;;;;;19.95;52.23;102109.13;5036384;28;20045;-56
2022/12/26 09:36:37;;;;;;;5.43;4.57;;;;;;;19.95;52.46;102111.81;5036377;28;20057;-55
2022/12/26 09:39:05;;;;;;;7.57;4.60;;;;;;;19.96;52.60;102118.06;5036505;28;20064;-57
2022/12/26 09:41:35;;;;;;;6.43;5.13;;;;;;;19.97;52.40;102117.09;5036243;28;20522;-57
2022/12/26 09:44:20;;;;;;;5.82;5.15;;;;;;;19.97;52.38;102112.59;5036307;28;20446;-56
2022/12/26 09:47:24;;;;;;;7.25;5.15;;;;;;;19.98;51.99;102116.16;5036665;28;20050;-54
2022/12/26 09:50:10;;;;;;;8.68;5.72;;;;;;;19.96;50.65;102121.59;5036673;28;20387;-56
2022/12/26 09:52:46;;;;;;;10.23;7.68;;;;;;;19.94;49.93;102120.88;5036280;28;20052;-56
2022/12/26 09:55:38;;;;;;;8.90;7.47;;;;;;;19.92;49.73;102121.91;5035876;28;20060;-55
2022/12/26 09:58:27;;;;;;;11.50;7.70;;;;;;;19.90;49.58;102118.50;5036216;28;20041;-54
2022/12/26 10:01:00;;;;;;;10.55;7.63;;;;;;;19.88;49.57;102115.88;5015951;28;20057;-55
2022/12/26 10:03:28;;;;;;;9.65;7.10;;;;;;;19.87;49.58;102116.88;5015197;28;20045;-53
2022/12/26 10:06:07;;;;;;;20.92;9.18;;;;;;;19.86;49.56;102117.84;5015440;28;20354;-52
2022/12/26 10:08:34;;;;;;;14.80;8.10;;;;;;;19.87;49.98;102118.69;5016411;28;20049;-53
2022/12/26 10:11:04;;;;;;;16.55;9.02;;;;;;;19.90;49.96;102118.50;5016343;28;20045;-48
2022/12/26 10:13:39;;;;;;;16.45;8.50;;;;;;;19.89;49.65;102128.38;5016281;28;20104;-53
2022/12/26 10:16:18;;;;;;;12.05;7.35;;;;;;;19.90;50.46;102116.66;5015863;28;20053;-50
2022/12/26 10:19:23;;;;;;;14.07;7.85;;;;;;;19.92;50.42;102114.72;5015507;28;20053;-46
2022/12/26 10:22:07;;;;;;;11.07;6.40;;;;;;;19.96;51.16;102118.06;5015877;28;20048;-55
2022/12/26 10:24:37;;;;;;;11.50;7.47;;;;;;;19.99;51.26;102112.47;5014957;28;20049;-52
2022/12/26 10:27:17;;;;;;;10.95;6.85;;;;;;;20.00;51.48;102112.38;5015989;28;20053;-53
2022/12/26 10:29:51;;;;;;;13.40;6.63;;;;;;;20.02;51.45;102106.03;5015659;28;20053;-49
2022/12/26 10:32:29;;;;;;;14.40;7.10;;;;;;;20.03;51.47;102107.75;5015762;28;20053;-54
2022/12/26 10:34:58;;;;;;;14.38;6.13;;;;;;;20.03;51.69;102102.38;5015465;28;20492;-56
2022/12/26 10:37:29;;;;;;;9.95;6.40;;;;;;;20.03;51.57;102103.25;5015501;28;20057;-56
2022/12/26 10:40:06;;;;;;;20.02;7.60;;;;;;;20.05;51.78;102100.44;5015433;28;20061;-50
2022/12/26 10:42:37;;;;;;;15.73;12.20;;;;;;;20.03;49.86;102102.38;5015352;28;20407;-52
2022/12/26 10:45:31;;;;;;;13.95;8.88;;;;;;;20.01;51.66;102094.41;5015088;28;20053;-55
2022/12/26 10:47:59;;;;;;;9.85;7.05;;;;;;;20.00;51.63;102090.00;5015076;28;20387;-48
2022/12/26 10:50:30;;;;;;;11.88;7.00;;;;;;;20.01;51.68;102086.34;5014677;28;20058;-47
2022/12/26 10:52:58;;;;;;;11.57;7.10;;;;;;;20.01;51.36;102094.41;5024704;28;20541;-49
2022/12/26 10:55:31;;;;;;;11.35;7.38;;;;;;;20.03;51.63;102091.63;5035061;28;20058;-51
2022/12/26 10:58:13;;;;;;;10.15;7.03;;;;;;;20.03;51.53;102079.03;5035197;28;20041;-50
2022/12/26 11:00:40;;;;;;;10.27;7.63;;;;;;;20.03;51.55;102083.56;5019155;28;20046;-51
2022/12/26 11:03:16;;;;;;;9.98;7.05;;;;;;;20.03;51.52;102094.31;5022318;28;20400;-57
2022/12/26 11:05:54;;;;;;;9.13;6.90;;;;;;;20.03;51.32;102080.88;5014935;28;20049;-53
2022/12/26 11:08:50;;;;;;;12.57;8.07;;;;;;;20.04;51.58;102088.81;5034029;28;20041;-58
2022/12/26 11:11:44;;;;;;;9.18;6.95;;;;;;;20.04;51.47;102088.81;5034952;28;20049;-55
2022/12/26 11:14:34;;;;;;;12.70;7.50;;;;;;;20.04;51.47;102067.31;5034451;28;20054;-50
2022/12/26 11:17:06;;;;;;;9.50;7.50;;;;;;;20.05;51.61;102069.03;5034564;28;20045;-49
2022/12/26 11:19:37;;;;;;;11.27;6.65;;;;;;;20.06;52.24;102067.22;5033574;28;20050;-58
2022/12/26 11:22:26;;;;;;;8.00;5.95;;;;;;;20.07;52.45;102067.13;5034513;28;20410;-57
2022/12/26 11:25:16;;;;;;;8.18;6.10;;;;;;;20.08;52.24;102063.44;5034346;28;20096;-57
2022/12/26 11:27:47;;;;;;;8.02;6.15;;;;;;;20.08;52.43;102063.44;5033461;28;20057;-53
2022/12/26 11:30:33;;;;;;;9.38;5.80;;;;;;;20.09;52.05;102059.78;5034849;28;20065;-54
2022/12/26 11:33:03;;;;;;;9.95;6.30;;;;;;;20.09;52.11;102058.94;5033645;28;20052;-51
2022/12/26 11:36:08;;;;;;;9.68;7.00;;;;;;;20.09;52.02;102043.66;5032301;28;20050;-55
2022/12/26 11:38:48;;;;;;;10.05;6.95;;;;;;;20.08;52.15;102047.31;5026291;28;20050;-52
2022/12/26 11:41:35;;;;;;;8.27;6.07;;;;;;;20.08;52.45;102036.56;5033457;28;20049;-58
2022/12/26 11:44:09;;;;;;;7.95;6.13;;;;;;;20.09;52.33;102022.16;5014243;28;20049;-58
2022/12/26 11:46:58;;;;;;;9.07;6.80;;;;;;;20.10;52.53;102034.66;5014041;28;20053;-58
2022/12/26 11:49:51;;;;;;;8.57;6.53;;;;;;;20.12;52.54;102032.69;5014128;28;20403;-58
2022/12/26 11:52:33;;;;;;;9.65;6.80;;;;;;;20.10;52.20;102029.28;5014376;28;20056;-57
2022/12/26 11:55:01;;;;;;;7.90;6.77;;;;;;;20.09;51.96;102022.16;5027494;28;20049;-57
2022/12/26 11:57:30;;;;;;;7.88;6.88;;;;;;;20.09;51.80;102027.53;5033366;28;20061;-57
2022/12/26 12:00:16;;;;;;;10.50;7.38;;;;;;;20.09;51.83;102024.84;5020836;28;20049;-57
2022/12/26 12:02:44;;;;;;;9.32;7.18;;;;;;;20.09;51.71;102022.16;5013483;28;20061;-57
2022/12/26 12:05:21;;;;;;;8.45;6.55;;;;;;;20.09;51.72;102022.16;5012188;28;20049;-57
2022/12/26 12:08:23;;;;;;;8.65;6.13;;;;;;;20.07;51.75;102016.03;5013373;28;20056;-57
2022/12/26 12:11:20;;;;;;;9.10;7.78;;;;;;;20.08;51.69;102023.13;5013673;28;20050;-57
2022/12/26 12:14:00;;;;;;;7.97;6.22;;;;;;;20.07;51.57;102021.41;5032397;28;20052;-57
2022/12/26 12:16:33;;;;;;;9.05;7.65;;;;;;;20.07;51.62;102013.34;5033357;28;20060;-57
2022/12/26 12:19:38;;;;;;;9.65;7.45;;;;;;;20.06;51.61;102010.78;5032886;28;20052;-57
2022/12/26 12:22:44;;;;;;;11.63;8.30;;;;;;;20.06;51.47;102008.94;5032763;28;20049;-57
2022/12/26 12:26:05;;;;;;;8.57;6.75;;;;;;;20.04;51.53;101994.75;5033077;28;20052;-57
2022/12/26 12:28:53;;;;;;;13.23;9.02;;;;;;;20.04;51.58;101994.75;5031040;28;20064;-57
2022/12/26 12:31:32;;;;;;;9.98;8.27;;;;;;;20.04;51.39;101986.66;5018892;28;20050;-57
2022/12/26 12:33:59;;;;;;;9.68;7.68;;;;;;;20.04;51.55;101989.38;5010861;28;20097;-57
2022/12/26 12:36:32;;;;;;;12.25;8.43;;;;;;;20.03;51.52;101990.34;5011147;28;20463;-57
2022/12/26 12:39:11;;;;;;;8.25;7.35;;;;;;;20.03;51.54;102001.09;5010343;28;20045;-57
2022/12/26 12:42:12;;;;;;;11.30;9.10;;;;;;;20.03;51.51;102000.22;5011181;28;20053;-57
2022/12/26 12:45:18;;;;;;;10.15;8.10;;;;;;;20.02;51.55;101994.00;5011094;28;20057;-57
2022/12/26 12:47:56;;;;;;;11.00;8.10;;;;;;;20.02;51.35;101999.38;5010648;28;20543;-57
2022/12/26 12:50:39;;;;;;;12.45;8.43;;;;;;;20.02;51.44;101995.84;5010705;28;20065;-57
2022/12/26 12:53:19;;;;;;;9.53;7.97;;;;;;;20.02;51.36;101996.69;5010536;28;20072;-57
2022/12/26 12:56:04;;;;;;;10.68;8.05;;;;;;;20.02;51.33;101993.16;5010511;28;20069;-57
2022/12/26 12:59:01;;;;;;;10.00;8.32;;;;;;;20.01;51.23;101984.19;5010798;28;20042;-57
2022/12/26 13:01:37;;;;;;;10.13;8.75;;;;;;;20.02;51.36;101994.00;5010514;28;20058;-57
2022/12/26 13:04:12;;;;;;;10.43;7.80;;;;;;;20.01;51.13;101986.88;5010943;28;20562;-57
2022/12/26 13:06:45;;;;;;;10.68;8.00;;;;;;;20.02;51.05;101985.09;5015615;28;20057;-57
2022/12/26 13:09:37;;;;;;;11.18;8.70;;;;;;;20.02;51.26;101980.56;5012667;28;20042;-57
2022/12/26 13:12:07;;;;;;;9.60;7.45;;;;;;;20.02;51.41;101985.94;5012993;28;20050;-57
2022/12/26 13:14:49;;;;;;;10.45;7.82;;;;;;;20.02;51.14;101979.72;5012655;28;20523;-57
2022/12/26 13:17:24;;;;;;;10.15;7.72;;;;;;;20.02;50.90;101985.09;5012609;28;20057;-57
2022/12/26 13:20:30;;;;;;;8.27;7.47;;;;;;;20.02;51.17;101977.88;5012505;28;20050;-57
2022/12/26 13:26:21;;;;;;;10.27;7.65;;;;;;;20.02;51.38;101982.41;5012792;28;20053;-57
2022/12/26 13:29:14;;;;;;;9.05;7.45;;;;;;;20.02;51.25;101982.41;5025591;28;20041;-57
2022/12/26 13:31:41;;;;;;;9.25;7.68;;;;;;;20.01;50.91;101981.50;5017599;28;20045;-57
2022/12/26 13:34:14;;;;;;;9.75;8.57;;;;;;;20.01;50.82;101981.50;5012770;28;20050;-57
2022/12/26 13:36:46;;;;;;;;;;;;;;;20.02;50.93;101977.88;5012782;28;20041;-57
2022/12/26 13:39:27;;;;;;;12.20;8.30;;;;;;;20.02;51.11;101985.94;5012145;28;19921;-57
2022/12/26 13:44:53;;;;;;;10.40;7.85;;;;;;;20.00;50.98;101990.53;5012690;28;20042;-56
2022/12/26 13:47:34;;;;;;;10.73;8.45;;;;;;;20.00;50.94;101986.03;5012949;28;20053;-57
2022/12/26 13:50:49;;;;;;;8.40;7.38;;;;;;;20.00;50.92;101985.16;5012165;28;20046;-57
2022/12/26 13:53:25;;;;;;;10.98;8.35;;;;;;;20.00;51.09;101980.66;5011834;28;20413;-57
2022/12/26 13:56:22;;;;;;;9.40;7.85;;;;;;;20.00;50.96;101991.41;5011047;28;20057;-56
2022/12/26 13:59:00;;;;;;;9.75;8.73;;;;;;;19.99;51.12;101978.09;5012589;28;20523;-56
2022/12/26 14:01:54;;;;;;;9.30;7.65;;;;;;;20.00;51.12;101987.84;5015692;28;20057;-56
2022/12/26 14:04:31;;;;;;;12.57;8.32;;;;;;;19.99;51.05;101987.00;5015649;28;20045;-56
2022/12/26 14:06:58;;;;;;;9.43;8.13;;;;;;;19.99;50.98;101976.25;5014460;28;20052;-56